createdAt,value
2023-03-31T00:00:23.915Z,11.99
2023-03-31T00:05:48.028Z,11.97
2023-03-31T00:11:10.038Z,11.89
2023-03-31T00:16:31.833Z,11.77
2023-03-31T00:21:54.493Z,11.77
2023-03-31T00:27:16.575Z,11.80
2023-03-31T00:32:38.429Z,11.82
2023-03-31T00:38:00.221Z,11.78
2023-03-31T00:43:34.116Z,11.85
2023-03-31T00:48:57.989Z,11.92
2023-03-31T00:54:21.502Z,11.84
2023-03-31T00:59:58.891Z,11.87
2023-03-31T01:05:25.927Z,11.95
2023-03-31T01:10:52.040Z,12.12
2023-03-31T01:16:13.807Z,12.09
2023-03-31T01:22:13.149Z,12.11
2023-03-31T01:28:01.715Z,12.15
2023-03-31T01:33:46.786Z,12.07
2023-03-31T01:39:14.203Z,11.94
2023-03-31T01:44:57.055Z,11.97
2023-03-31T01:50:27.789Z,12.03
2023-03-31T01:56:18.534Z,12.23
2023-03-31T02:01:56.280Z,12.40
2023-03-31T02:07:27.570Z,12.41
2023-03-31T02:12:51.563Z,12.45
2023-03-31T02:18:18.572Z,12.38
2023-03-31T02:23:41.166Z,12.19
2023-03-31T02:29:03.300Z,12.02
2023-03-31T02:34:25.090Z,11.83
2023-03-31T02:39:50.372Z,11.76
2023-03-31T02:45:47.545Z,11.77
2023-03-31T02:51:09.411Z,11.84
2023-03-31T02:56:58.605Z,11.76
2023-03-31T03:02:42.062Z,11.75
2023-03-31T03:08:18.064Z,11.82
2023-03-31T03:13:51.781Z,11.79
2023-03-31T03:19:20.491Z,11.89
2023-03-31T03:24:42.585Z,11.80
2023-03-31T03:30:06.982Z,11.75
2023-03-31T03:35:28.998Z,11.77
2023-03-31T03:40:53.910Z,11.71
2023-03-31T03:46:15.809Z,11.76
2023-03-31T03:51:37.603Z,11.66
2023-03-31T03:56:59.480Z,11.69
2023-03-31T04:02:21.352Z,11.66
2023-03-31T04:07:43.178Z,11.58
2023-03-31T04:13:04.930Z,11.54
2023-03-31T04:18:26.696Z,11.39
2023-03-31T04:23:50.282Z,11.45
2023-03-31T04:29:13.925Z,11.59
2023-03-31T04:34:36.041Z,11.57
2023-03-31T04:39:59.321Z,11.64
2023-03-31T04:45:21.126Z,11.72
2023-03-31T04:50:42.943Z,11.73
2023-03-31T04:56:06.007Z,11.67
2023-03-31T05:01:28.001Z,11.61
2023-03-31T05:06:50.357Z,11.54
2023-03-31T05:12:12.089Z,11.56
2023-03-31T05:17:35.596Z,11.48
2023-03-31T05:22:57.368Z,11.31
2023-03-31T05:28:19.106Z,11.25
2023-03-31T05:33:42.000Z,11.03
2023-03-31T05:39:06.190Z,10.85
2023-03-31T05:44:27.910Z,10.73
2023-03-31T05:49:49.651Z,10.71
2023-03-31T05:55:11.542Z,10.83
2023-03-31T06:00:33.260Z,10.92
2023-03-31T06:05:55.750Z,10.76
2023-03-31T06:11:20.498Z,10.61
2023-03-31T06:16:42.370Z,10.55
2023-03-31T06:22:04.244Z,10.40
2023-03-31T06:27:26.079Z,10.64
2023-03-31T06:32:47.856Z,10.59
2023-03-31T06:38:09.661Z,10.49
2023-03-31T06:43:31.419Z,10.48
2023-03-31T06:48:54.329Z,10.45
2023-03-31T06:54:16.066Z,10.44
2023-03-31T06:59:37.804Z,10.44
2023-03-31T07:04:59.779Z,10.50
2023-03-31T07:10:23.019Z,10.84
2023-03-31T07:15:48.194Z,10.96
2023-03-31T07:21:10.333Z,10.97
2023-03-31T07:26:32.482Z,11.03
2023-03-31T07:31:54.260Z,11.08
2023-03-31T07:37:16.085Z,11.22
2023-03-31T07:42:38.059Z,11.23
2023-03-31T07:48:00.296Z,11.14
2023-03-31T07:53:22.172Z,11.06
2023-03-31T07:58:44.258Z,11.17
2023-03-31T08:04:06.092Z,11.14
2023-03-31T08:09:27.889Z,11.16
2023-03-31T08:14:49.614Z,11.21
2023-03-31T08:20:12.027Z,11.24
2023-03-31T08:25:33.734Z,11.27
2023-03-31T08:30:56.152Z,11.38
2023-03-31T08:36:17.953Z,11.35
2023-03-31T08:42:00.781Z,11.53
2023-03-31T08:47:26.725Z,11.67
2023-03-31T08:52:54.983Z,11.89
2023-03-31T08:58:43.362Z,12.06
2023-03-31T09:04:29.824Z,12.20
2023-03-31T09:10:20.189Z,12.41
2023-03-31T09:16:05.480Z,12.54
2023-03-31T09:21:51.937Z,12.70
2023-03-31T09:27:15.008Z,12.79
2023-03-31T09:32:39.250Z,12.90
2023-03-31T09:38:01.455Z,12.97
2023-03-31T09:43:26.963Z,13.02
2023-03-31T09:48:55.104Z,13.04
2023-03-31T09:54:25.838Z,13.10
2023-03-31T09:59:51.631Z,13.23
2023-03-31T10:05:22.637Z,13.45
2023-03-31T10:10:48.152Z,13.68
2023-03-31T10:16:15.101Z,13.76
2023-03-31T10:21:38.652Z,14.02
2023-03-31T10:27:00.522Z,14.26
2023-03-31T10:32:28.761Z,14.22
2023-03-31T10:37:57.165Z,14.25
2023-03-31T10:43:21.871Z,14.44
2023-03-31T10:48:45.059Z,14.59
2023-03-31T10:54:09.075Z,14.61
2023-03-31T10:59:41.693Z,14.59
2023-03-31T11:05:15.454Z,14.60
2023-03-31T11:10:41.930Z,14.56
2023-03-31T11:16:39.343Z,14.38
2023-03-31T11:22:19.451Z,14.17
2023-03-31T11:28:18.220Z,12.89
2023-03-31T11:34:06.254Z,12.20
2023-03-31T11:39:46.064Z,11.96
2023-03-31T11:45:22.616Z,11.98
2023-03-31T11:50:47.281Z,11.89
2023-03-31T11:56:12.192Z,11.77
2023-03-31T12:01:44.551Z,11.76
2023-03-31T12:07:29.487Z,11.99
2023-03-31T12:13:03.201Z,12.66
2023-03-31T12:18:28.306Z,13.13
2023-03-31T12:23:50.240Z,13.23
2023-03-31T12:29:32.976Z,13.26
2023-03-31T12:35:02.129Z,13.49
2023-03-31T12:40:41.751Z,13.61
2023-03-31T12:46:18.679Z,13.79
2023-03-31T12:52:04.293Z,13.88
2023-03-31T12:57:26.879Z,13.91
2023-03-31T13:02:50.147Z,13.97
2023-03-31T13:08:50.626Z,13.96
2023-03-31T13:14:28.744Z,13.87
2023-03-31T13:19:51.712Z,13.74
2023-03-31T13:25:35.526Z,13.43
2023-03-31T13:31:09.400Z,12.88
2023-03-31T13:36:34.476Z,12.59
2023-03-31T13:42:36.229Z,12.44
2023-03-31T13:48:14.940Z,12.39
2023-03-31T13:53:45.504Z,12.10
2023-03-31T13:59:14.962Z,11.90
2023-03-31T14:04:54.824Z,11.68
2023-03-31T14:10:49.324Z,11.70
2023-03-31T14:16:14.188Z,11.89
2023-03-31T14:21:59.646Z,12.40
2023-03-31T14:27:50.410Z,12.63
2023-03-31T14:33:26.886Z,12.77
2023-03-31T14:38:48.709Z,12.74
2023-03-31T14:44:15.900Z,12.99
2023-03-31T14:49:39.114Z,12.97
2023-03-31T14:55:01.329Z,13.05
2023-03-31T15:00:30.725Z,13.00
2023-03-31T15:05:57.462Z,13.08
2023-03-31T15:11:21.935Z,13.10
2023-03-31T15:16:45.186Z,13.06
2023-03-31T15:22:18.980Z,13.12
2023-03-31T15:27:45.181Z,12.99
2023-03-31T15:38:59.052Z,13.03
2023-03-31T15:44:43.573Z,13.11
2023-03-31T15:50:08.203Z,13.04
2023-03-31T15:55:39.250Z,13.03
2023-03-31T16:01:05.593Z,13.03
2023-03-31T16:06:43.869Z,13.01
2023-03-31T16:12:14.855Z,13.00
2023-03-31T16:17:42.999Z,12.93
2023-03-31T16:23:16.271Z,12.88
2023-03-31T16:28:38.528Z,12.85
2023-03-31T16:34:01.161Z,12.81
2023-03-31T16:39:22.869Z,12.65
2023-03-31T16:44:52.904Z,12.51
2023-03-31T16:50:22.386Z,12.44
2023-03-31T16:55:44.511Z,12.31
2023-03-31T17:01:07.805Z,12.10
2023-03-31T17:06:29.606Z,12.06
2023-03-31T17:11:51.398Z,11.99
2023-03-31T17:17:14.756Z,11.96
2023-03-31T17:22:38.456Z,11.68
2023-03-31T17:28:01.878Z,11.74
2023-03-31T17:33:23.727Z,11.70
2023-03-31T17:38:45.555Z,11.70
2023-03-31T17:44:08.719Z,11.67
2023-03-31T17:49:30.691Z,11.72
2023-03-31T17:54:53.297Z,11.77
2023-03-31T18:00:16.535Z,11.59
2023-03-31T18:05:39.274Z,11.59
2023-03-31T18:11:02.842Z,11.56
2023-03-31T18:16:24.806Z,11.43
2023-03-31T18:21:46.680Z,10.94
2023-03-31T18:27:08.537Z,10.71
2023-03-31T18:32:30.835Z,10.56
2023-03-31T18:37:53.426Z,10.45
2023-03-31T18:43:15.507Z,10.73
2023-03-31T18:48:38.437Z,10.83
2023-03-31T18:54:00.207Z,10.98
2023-03-31T18:59:22.002Z,11.06
2023-03-31T19:04:48.024Z,10.97
2023-03-31T19:10:10.214Z,11.05
2023-03-31T19:15:33.182Z,11.08
2023-03-31T19:20:55.572Z,11.02
2023-03-31T19:26:19.466Z,11.04
2023-03-31T19:31:41.516Z,11.03
2023-03-31T19:37:03.860Z,11.03
2023-03-31T19:42:25.687Z,11.02
2023-03-31T19:47:47.589Z,11.01
2023-03-31T19:53:09.402Z,11.09
2023-03-31T19:58:35.068Z,11.11
2023-03-31T20:03:57.175Z,11.14
2023-03-31T20:09:19.169Z,11.13
2023-03-31T20:14:40.984Z,11.24
2023-03-31T20:20:03.130Z,11.29
2023-03-31T20:25:24.910Z,11.24
2023-03-31T20:30:46.648Z,11.23
2023-03-31T20:36:11.377Z,11.20
2023-03-31T20:41:35.173Z,11.18
2023-03-31T20:46:59.025Z,11.20
2023-03-31T20:52:20.924Z,11.22
2023-03-31T20:57:42.666Z,11.17
2023-03-31T21:03:04.537Z,11.12
2023-03-31T21:08:26.344Z,11.11
2023-03-31T21:13:48.763Z,11.26
2023-03-31T21:19:11.067Z,11.16
2023-03-31T21:24:32.832Z,11.02
2023-03-31T21:29:54.786Z,10.98
2023-03-31T21:35:17.818Z,11.01
2023-03-31T21:40:39.610Z,10.86
2023-03-31T21:46:01.998Z,10.90
2023-03-31T21:51:24.759Z,10.90
2023-03-31T21:56:46.571Z,10.89
2023-03-31T22:02:08.378Z,10.85
2023-03-31T22:07:30.536Z,10.88
2023-03-31T22:12:52.343Z,10.91
2023-03-31T22:18:14.239Z,10.84
2023-03-31T22:23:36.137Z,10.86
2023-03-31T22:28:58.156Z,10.79
2023-03-31T22:34:19.993Z,10.81
2023-03-31T22:39:42.469Z,10.68
2023-03-31T22:45:04.655Z,10.69
2023-03-31T22:50:27.207Z,10.65
2023-03-31T22:55:53.815Z,10.59
2023-03-31T23:01:19.352Z,10.56
2023-03-31T23:06:41.156Z,10.54
2023-03-31T23:12:03.023Z,10.42
2023-03-31T23:17:24.792Z,10.51
2023-03-31T23:22:46.588Z,10.43
2023-03-31T23:28:08.447Z,10.33
2023-03-31T23:33:30.565Z,10.29
2023-03-31T23:38:54.106Z,10.32
2023-03-31T23:44:16.701Z,10.23
2023-03-31T23:49:38.441Z,10.24
2023-03-31T23:55:00.343Z,10.25
